sensor_id;sensor_type;location;lat;lon;timestamp;P1;durP1;ratioP1;P2;durP2;ratioP2
12373;SDS011;6251;51.762;8.660;2023-12-14T00:08:19;10.30;;;6.82;;
12373;SDS011;6251;51.762;8.660;2023-12-14T02:10:10;25.25;;;10.93;;
12373;SDS011;6251;51.762;8.660;2023-12-14T03:51:44;16.52;;;8.00;;
12373;SDS011;6251;51.762;8.660;2023-12-14T05:02:47;20.37;;;9.75;;
12373;SDS011;6251;51.762;8.660;2023-12-14T05:12:50;16.05;;;8.60;;
12373;SDS011;6251;51.762;8.660;2023-12-14T05:22:51;17.98;;;9.40;;
12373;SDS011;6251;51.762;8.660;2023-12-14T05:32:51;18.30;;;9.40;;
12373;SDS011;6251;51.762;8.660;2023-12-14T05:42:52;21.83;;;11.40;;
12373;SDS011;6251;51.762;8.660;2023-12-14T05:52:54;18.27;;;10.80;;
12373;SDS011;6251;51.762;8.660;2023-12-14T06:02:55;17.83;;;10.07;;
12373;SDS011;6251;51.762;8.660;2023-12-14T06:12:56;14.90;;;8.75;;
12373;SDS011;6251;51.762;8.660;2023-12-14T06:22:56;22.08;;;11.52;;
12373;SDS011;6251;51.762;8.660;2023-12-14T06:32:57;26.87;;;13.30;;
12373;SDS011;6251;51.762;8.660;2023-12-14T06:42:58;26.00;;;12.75;;
12373;SDS011;6251;51.762;8.660;2023-12-14T06:52:58;20.23;;;11.12;;
12373;SDS011;6251;51.762;8.660;2023-12-14T07:02:59;29.83;;;15.15;;
12373;SDS011;6251;51.762;8.660;2023-12-14T07:12:59;44.80;;;17.48;;
12373;SDS011;6251;51.762;8.660;2023-12-14T07:23:00;37.88;;;15.50;;
12373;SDS011;6251;51.762;8.660;2023-12-14T07:33:01;32.28;;;15.85;;
12373;SDS011;6251;51.762;8.660;2023-12-14T07:43:02;26.20;;;14.27;;
12373;SDS011;6251;51.762;8.660;2023-12-14T07:53:02;29.65;;;13.35;;
12373;SDS011;6251;51.762;8.660;2023-12-14T08:03:03;24.10;;;11.85;;
12373;SDS011;6251;51.762;8.660;2023-12-14T08:13:04;18.55;;;10.90;;
12373;SDS011;6251;51.762;8.660;2023-12-14T08:23:04;22.62;;;13.15;;
12373;SDS011;6251;51.762;8.660;2023-12-14T08:33:05;21.35;;;12.05;;
12373;SDS011;6251;51.762;8.660;2023-12-14T08:43:05;23.60;;;14.07;;
12373;SDS011;6251;51.762;8.660;2023-12-14T08:53:06;24.95;;;13.95;;
12373;SDS011;6251;51.762;8.660;2023-12-14T09:03:08;20.90;;;13.73;;
12373;SDS011;6251;51.762;8.660;2023-12-14T09:13:09;25.30;;;14.95;;
12373;SDS011;6251;51.762;8.660;2023-12-14T09:23:10;26.80;;;15.32;;
12373;SDS011;6251;51.762;8.660;2023-12-14T09:33:11;22.03;;;14.17;;
12373;SDS011;6251;51.762;8.660;2023-12-14T09:43:11;25.27;;;15.10;;
12373;SDS011;6251;51.762;8.660;2023-12-14T09:53:13;27.42;;;15.15;;
12373;SDS011;6251;51.762;8.660;2023-12-14T10:03:21;22.37;;;14.03;;
12373;SDS011;6251;51.762;8.660;2023-12-14T10:13:38;24.90;;;14.57;;
12373;SDS011;6251;51.762;8.660;2023-12-14T10:23:39;23.23;;;14.50;;
12373;SDS011;6251;51.762;8.660;2023-12-14T10:33:40;22.37;;;14.10;;
12373;SDS011;6251;51.762;8.660;2023-12-14T10:43:41;21.65;;;14.48;;
12373;SDS011;6251;51.762;8.660;2023-12-14T10:53:42;20.17;;;12.97;;
12373;SDS011;6251;51.762;8.660;2023-12-14T11:03:48;19.90;;;13.98;;
12373;SDS011;6251;51.762;8.660;2023-12-14T11:13:50;22.33;;;14.57;;
12373;SDS011;6251;51.762;8.660;2023-12-14T11:23:54;17.55;;;13.02;;
12373;SDS011;6251;51.762;8.660;2023-12-14T11:33:54;19.25;;;12.75;;
12373;SDS011;6251;51.762;8.660;2023-12-14T11:43:56;18.90;;;14.10;;
12373;SDS011;6251;51.762;8.660;2023-12-14T11:53:56;23.90;;;16.08;;
12373;SDS011;6251;51.762;8.660;2023-12-14T12:04:09;21.48;;;14.87;;
12373;SDS011;6251;51.762;8.660;2023-12-14T12:14:12;24.20;;;15.65;;
12373;SDS011;6251;51.762;8.660;2023-12-14T12:24:13;23.42;;;16.00;;
12373;SDS011;6251;51.762;8.660;2023-12-14T12:34:14;24.73;;;15.15;;
12373;SDS011;6251;51.762;8.660;2023-12-14T12:44:15;24.67;;;14.45;;
12373;SDS011;6251;51.762;8.660;2023-12-14T12:54:16;21.15;;;13.93;;
12373;SDS011;6251;51.762;8.660;2023-12-14T13:04:18;20.02;;;12.70;;
12373;SDS011;6251;51.762;8.660;2023-12-14T13:14:21;15.73;;;11.40;;
12373;SDS011;6251;51.762;8.660;2023-12-14T13:24:23;17.95;;;12.00;;
12373;SDS011;6251;51.762;8.660;2023-12-14T13:34:24;20.35;;;13.05;;
12373;SDS011;6251;51.762;8.660;2023-12-14T13:44:24;21.12;;;12.40;;
12373;SDS011;6251;51.762;8.660;2023-12-14T13:54:25;18.08;;;12.05;;
12373;SDS011;6251;51.762;8.660;2023-12-14T14:04:25;19.33;;;12.13;;
12373;SDS011;6251;51.762;8.660;2023-12-14T14:14:26;15.93;;;11.85;;
12373;SDS011;6251;51.762;8.660;2023-12-14T14:24:27;16.27;;;10.98;;
12373;SDS011;6251;51.762;8.660;2023-12-14T14:34:27;22.77;;;11.45;;
12373;SDS011;6251;51.762;8.660;2023-12-14T14:44:28;15.30;;;10.65;;
12373;SDS011;6251;51.762;8.660;2023-12-14T14:54:28;14.68;;;10.45;;
12373;SDS011;6251;51.762;8.660;2023-12-14T15:04:29;16.00;;;11.18;;
12373;SDS011;6251;51.762;8.660;2023-12-14T15:14:29;14.15;;;10.98;;
12373;SDS011;6251;51.762;8.660;2023-12-14T15:24:30;18.83;;;12.30;;
12373;SDS011;6251;51.762;8.660;2023-12-14T15:34:32;15.80;;;11.38;;
12373;SDS011;6251;51.762;8.660;2023-12-14T15:44:32;18.45;;;12.98;;
12373;SDS011;6251;51.762;8.660;2023-12-14T15:54:33;19.55;;;12.25;;
12373;SDS011;6251;51.762;8.660;2023-12-14T16:04:33;19.12;;;12.77;;
12373;SDS011;6251;51.762;8.660;2023-12-14T16:14:34;17.67;;;11.82;;
12373;SDS011;6251;51.762;8.660;2023-12-14T16:24:34;20.45;;;13.25;;
12373;SDS011;6251;51.762;8.660;2023-12-14T16:34:35;23.20;;;14.07;;
12373;SDS011;6251;51.762;8.660;2023-12-14T16:44:35;21.90;;;13.38;;
12373;SDS011;6251;51.762;8.660;2023-12-14T16:54:38;22.42;;;15.38;;
12373;SDS011;6251;51.762;8.660;2023-12-14T17:04:39;25.00;;;14.70;;
12373;SDS011;6251;51.762;8.660;2023-12-14T17:14:40;25.27;;;15.10;;
12373;SDS011;6251;51.762;8.660;2023-12-14T17:24:41;23.52;;;14.57;;
12373;SDS011;6251;51.762;8.660;2023-12-14T17:34:42;24.40;;;15.68;;
12373;SDS011;6251;51.762;8.660;2023-12-14T17:44:43;27.40;;;16.70;;
12373;SDS011;6251;51.762;8.660;2023-12-14T17:54:43;28.40;;;17.17;;
12373;SDS011;6251;51.762;8.660;2023-12-14T18:04:44;29.60;;;17.62;;
12373;SDS011;6251;51.762;8.660;2023-12-14T18:14:45;31.00;;;18.33;;
12373;SDS011;6251;51.762;8.660;2023-12-14T18:24:45;31.48;;;17.27;;
12373;SDS011;6251;51.762;8.660;2023-12-14T18:34:46;40.25;;;19.58;;
12373;SDS011;6251;51.762;8.660;2023-12-14T18:44:47;30.70;;;17.33;;
12373;SDS011;6251;51.762;8.660;2023-12-14T18:54:47;34.25;;;19.17;;
12373;SDS011;6251;51.762;8.660;2023-12-14T19:04:48;38.40;;;19.65;;
12373;SDS011;6251;51.762;8.660;2023-12-14T19:14:49;35.67;;;19.65;;
12373;SDS011;6251;51.762;8.660;2023-12-14T19:24:49;38.20;;;19.17;;
12373;SDS011;6251;51.762;8.660;2023-12-14T19:34:50;38.95;;;19.80;;
12373;SDS011;6251;51.762;8.660;2023-12-14T19:44:51;34.83;;;19.40;;
12373;SDS011;6251;51.762;8.660;2023-12-14T19:54:52;40.12;;;19.02;;
12373;SDS011;6251;51.762;8.660;2023-12-14T20:04:52;40.72;;;19.12;;
12373;SDS011;6251;51.762;8.660;2023-12-14T20:14:53;40.25;;;19.17;;
12373;SDS011;6251;51.762;8.660;2023-12-14T20:24:53;42.03;;;21.48;;
12373;SDS011;6251;51.762;8.660;2023-12-14T20:34:54;39.75;;;19.02;;
12373;SDS011;6251;51.762;8.660;2023-12-14T20:44:55;39.80;;;19.27;;
12373;SDS011;6251;51.762;8.660;2023-12-14T20:54:55;47.75;;;23.15;;
12373;SDS011;6251;51.762;8.660;2023-12-14T21:04:56;42.60;;;21.87;;
12373;SDS011;6251;51.762;8.660;2023-12-14T21:14:56;44.03;;;21.30;;
12373;SDS011;6251;51.762;8.660;2023-12-14T21:24:57;38.67;;;19.65;;
12373;SDS011;6251;51.762;8.660;2023-12-14T21:35:01;43.90;;;21.83;;
12373;SDS011;6251;51.762;8.660;2023-12-14T21:45:02;47.80;;;22.83;;
12373;SDS011;6251;51.762;8.660;2023-12-14T21:55:03;47.75;;;22.40;;
